createdAt,value
2023-03-12T00:01:17.930Z,14.08
2023-03-12T00:03:44.605Z,14.02
2023-03-12T00:06:12.136Z,14.06
2023-03-12T00:08:39.528Z,14.03
2023-03-12T00:11:10.993Z,14.03
2023-03-12T00:13:37.784Z,14.00
2023-03-12T00:16:06.744Z,13.97
2023-03-12T00:18:33.349Z,14.00
2023-03-12T00:21:00.136Z,13.98
2023-03-12T00:23:26.930Z,13.96
2023-03-12T00:25:53.525Z,13.99
2023-03-12T00:28:20.420Z,13.99
2023-03-12T00:30:47.030Z,13.81
2023-03-12T00:33:13.854Z,13.97
2023-03-12T00:35:40.466Z,13.95
2023-03-12T00:38:07.044Z,13.93
2023-03-12T00:40:33.576Z,13.89
2023-03-12T00:43:00.154Z,13.88
2023-03-12T00:45:26.756Z,13.87
2023-03-12T00:47:53.351Z,13.90
2023-03-12T00:50:19.960Z,13.88
2023-03-12T00:52:46.564Z,13.91
2023-03-12T00:55:13.508Z,13.89
2023-03-12T00:57:40.169Z,13.88
2023-03-12T01:00:10.979Z,13.87
2023-03-12T01:02:39.118Z,13.88
2023-03-12T01:05:08.134Z,13.88
2023-03-12T01:07:36.317Z,13.86
2023-03-12T01:10:03.676Z,13.85
2023-03-12T01:12:30.247Z,13.80
2023-03-12T01:14:56.793Z,13.83
2023-03-12T01:17:23.336Z,13.82
2023-03-12T01:19:49.888Z,13.82
2023-03-12T01:22:16.453Z,13.83
2023-03-12T01:24:43.002Z,13.83
2023-03-12T01:27:09.583Z,13.80
2023-03-12T01:29:36.102Z,13.80
2023-03-12T01:32:02.666Z,13.79
2023-03-12T01:34:30.762Z,13.78
2023-03-12T01:36:57.348Z,13.77
2023-03-12T01:39:25.724Z,13.79
2023-03-12T01:41:52.295Z,13.80
2023-03-12T01:44:18.910Z,13.79
2023-03-12T01:46:46.165Z,13.78
2023-03-12T01:49:34.380Z,13.81
2023-03-12T01:52:03.471Z,13.81
2023-03-12T01:54:33.014Z,13.81
2023-03-12T01:57:01.757Z,13.77
2023-03-12T01:59:36.618Z,13.78
2023-03-12T02:02:04.953Z,13.78
2023-03-12T02:04:33.736Z,13.75
2023-03-12T02:07:07.467Z,13.77
2023-03-12T02:09:37.568Z,13.75
2023-03-12T02:12:04.669Z,13.70
2023-03-12T02:14:31.990Z,13.69
2023-03-12T02:16:58.819Z,13.73
2023-03-12T02:20:01.921Z,13.74
2023-03-12T02:22:29.471Z,13.73
2023-03-12T02:25:07.732Z,13.59
2023-03-12T02:27:37.342Z,13.73
2023-03-12T02:30:05.154Z,13.70
2023-03-12T02:32:38.398Z,13.73
2023-03-12T02:35:06.764Z,13.73
2023-03-12T02:37:33.441Z,13.68
2023-03-12T02:40:15.569Z,13.67
2023-03-12T02:42:42.153Z,13.66
2023-03-12T02:45:08.997Z,13.66
2023-03-12T02:47:35.557Z,13.67
2023-03-12T02:50:02.134Z,13.65
2023-03-12T02:52:30.568Z,13.62
2023-03-12T02:54:57.140Z,13.62
2023-03-12T02:57:23.677Z,13.59
2023-03-12T02:59:50.188Z,13.60
2023-03-12T03:02:16.754Z,13.58
2023-03-12T03:04:43.341Z,13.61
2023-03-12T03:07:10.060Z,13.53
2023-03-12T03:09:36.636Z,13.60
2023-03-12T03:12:03.341Z,13.62
2023-03-12T03:14:29.916Z,13.60
2023-03-12T03:16:56.497Z,13.58
2023-03-12T03:19:23.196Z,13.54
2023-03-12T03:21:49.804Z,13.60
2023-03-12T03:24:16.892Z,13.60
2023-03-12T03:26:44.206Z,13.59
2023-03-12T03:29:10.787Z,13.58
2023-03-12T03:31:37.343Z,13.58
2023-03-12T03:34:04.104Z,13.59
2023-03-12T03:36:30.729Z,13.58
2023-03-12T03:38:57.296Z,13.57
2023-03-12T03:41:23.839Z,13.52
2023-03-12T03:43:50.441Z,13.57
2023-03-12T03:46:17.066Z,13.52
2023-03-12T03:48:43.700Z,13.58
2023-03-12T03:51:11.611Z,13.58
2023-03-12T03:53:38.317Z,13.54
2023-03-12T03:56:09.862Z,13.48
2023-03-12T03:58:36.529Z,13.55
2023-03-12T04:01:03.480Z,13.51
2023-03-12T04:03:30.160Z,13.54
2023-03-12T04:05:59.823Z,13.51
2023-03-12T04:08:26.969Z,13.47
2023-03-12T04:10:53.556Z,13.47
2023-03-12T04:13:20.745Z,13.47
2023-03-12T04:15:53.471Z,13.47
2023-03-12T04:18:20.384Z,13.44
2023-03-12T04:20:46.990Z,13.46
2023-03-12T04:23:13.586Z,13.45
2023-03-12T04:25:40.171Z,13.48
2023-03-12T04:28:06.810Z,13.44
2023-03-12T04:30:33.626Z,13.41
2023-03-12T04:33:00.240Z,13.48
2023-03-12T04:35:26.819Z,13.44
2023-03-12T04:37:53.377Z,13.44
2023-03-12T04:40:20.029Z,13.42
2023-03-12T04:42:47.314Z,13.47
2023-03-12T04:45:14.408Z,13.45
2023-03-12T04:47:41.195Z,13.43
2023-03-12T04:50:08.578Z,13.46
2023-03-12T04:52:35.178Z,13.44
2023-03-12T04:55:02.146Z,13.38
2023-03-12T04:57:28.782Z,13.44
2023-03-12T04:59:55.445Z,13.40
2023-03-12T05:02:22.005Z,13.42
2023-03-12T05:04:48.560Z,13.42
2023-03-12T05:07:15.120Z,13.43
2023-03-12T05:09:41.672Z,13.42
2023-03-12T05:12:08.537Z,13.46
2023-03-12T05:14:35.120Z,13.40
2023-03-12T05:17:01.675Z,13.45
2023-03-12T05:19:28.250Z,13.44
2023-03-12T05:21:54.805Z,13.40
2023-03-12T05:24:22.548Z,13.42
2023-03-12T05:26:49.133Z,13.46
2023-03-12T05:29:15.718Z,13.43
2023-03-12T05:31:42.357Z,13.40
2023-03-12T05:34:12.238Z,13.44
2023-03-12T05:36:39.073Z,13.44
2023-03-12T05:39:05.923Z,13.46
2023-03-12T05:41:32.483Z,13.43
2023-03-12T05:43:59.583Z,13.43
2023-03-12T05:46:27.698Z,13.41
2023-03-12T05:48:54.528Z,13.39
2023-03-12T05:51:21.679Z,13.42
2023-03-12T05:53:48.359Z,13.37
2023-03-12T05:56:17.776Z,13.40
2023-03-12T05:58:44.367Z,13.38
2023-03-12T06:01:15.612Z,13.42
2023-03-12T06:03:43.126Z,13.39
2023-03-12T06:06:10.769Z,13.40
2023-03-12T06:08:37.482Z,13.34
2023-03-12T06:11:04.200Z,13.33
2023-03-12T06:13:31.162Z,13.39
2023-03-12T06:16:08.804Z,13.40
2023-03-12T06:18:36.430Z,13.37
2023-03-12T06:21:22.059Z,13.38
2023-03-12T06:23:49.906Z,13.38
2023-03-12T06:26:16.980Z,13.33
2023-03-12T06:28:44.946Z,13.35
2023-03-12T06:31:11.843Z,13.32
2023-03-12T06:33:38.858Z,13.35
2023-03-12T06:36:07.649Z,13.33
2023-03-12T06:38:35.144Z,13.34
2023-03-12T06:41:02.871Z,13.34
2023-03-12T06:43:31.328Z,13.37
2023-03-12T06:45:59.671Z,13.38
2023-03-12T06:48:27.902Z,13.36
2023-03-12T06:50:54.573Z,13.38
2023-03-12T06:53:21.342Z,13.38
2023-03-12T06:55:50.720Z,13.35
2023-03-12T06:58:17.390Z,13.38
2023-03-12T07:00:44.012Z,13.35
2023-03-12T07:03:10.592Z,13.36
2023-03-12T07:05:37.166Z,13.33
2023-03-12T07:08:03.820Z,13.34
2023-03-12T07:10:31.574Z,13.39
2023-03-12T07:12:58.200Z,13.38
2023-03-12T07:15:24.760Z,13.37
2023-03-12T07:17:51.330Z,13.39
2023-03-12T07:20:18.097Z,13.38
2023-03-12T07:22:44.947Z,13.35
2023-03-12T07:25:11.885Z,13.38
2023-03-12T07:27:38.430Z,13.38
2023-03-12T07:30:05.750Z,13.37
2023-03-12T07:32:33.626Z,13.38
2023-03-12T07:35:00.572Z,13.39
2023-03-12T07:37:27.279Z,13.37
2023-03-12T07:39:54.786Z,13.28
2023-03-12T07:42:21.759Z,13.37
2023-03-12T07:44:48.591Z,13.37
2023-03-12T07:47:23.559Z,13.39
2023-03-12T07:49:50.930Z,13.35
2023-03-12T07:52:19.449Z,13.34
2023-03-12T07:54:46.246Z,13.37
2023-03-12T07:57:12.947Z,13.34
2023-03-12T07:59:39.681Z,13.35
2023-03-12T08:02:06.857Z,13.36
2023-03-12T08:04:33.518Z,13.37
2023-03-12T08:07:00.233Z,13.37
2023-03-12T08:09:26.808Z,13.38
2023-03-12T08:11:53.404Z,13.37
2023-03-12T08:14:20.051Z,13.37
2023-03-12T08:16:46.844Z,13.37
2023-03-12T08:19:13.393Z,13.37
2023-03-12T08:21:39.948Z,13.37
2023-03-12T08:24:06.870Z,13.35
2023-03-12T08:26:33.604Z,13.28
2023-03-12T08:29:00.469Z,13.35
2023-03-12T08:31:28.895Z,13.33
2023-03-12T08:33:55.488Z,13.33
2023-03-12T08:36:22.673Z,13.35
2023-03-12T08:38:49.387Z,13.33
2023-03-12T08:41:15.965Z,13.31
2023-03-12T08:43:42.563Z,13.30
2023-03-12T08:46:11.825Z,13.30
2023-03-12T08:48:39.597Z,13.29
2023-03-12T08:51:07.608Z,13.27
2023-03-12T08:53:36.236Z,13.26
2023-03-12T08:56:04.108Z,13.25
2023-03-12T08:58:30.926Z,13.22
2023-03-12T09:00:57.897Z,13.10
2023-03-12T09:03:25.079Z,13.17
2023-03-12T09:06:01.745Z,13.14
2023-03-12T09:08:28.336Z,13.16
2023-03-12T09:10:54.864Z,13.14
2023-03-12T09:13:21.428Z,13.10
2023-03-12T09:15:47.967Z,13.09
2023-03-12T09:18:14.592Z,13.07
2023-03-12T09:20:43.079Z,13.10
2023-03-12T09:23:09.751Z,13.07
2023-03-12T09:25:36.332Z,13.09
2023-03-12T09:28:02.880Z,13.09
2023-03-12T09:30:30.692Z,13.06
2023-03-12T09:32:57.449Z,13.05
2023-03-12T09:35:24.034Z,13.08
2023-03-12T09:37:51.584Z,13.11
2023-03-12T09:40:22.850Z,13.12
2023-03-12T09:42:59.433Z,13.13
2023-03-12T09:45:33.051Z,13.12
2023-03-12T09:48:04.429Z,13.12
2023-03-12T09:50:40.556Z,13.13
2023-03-12T09:53:28.660Z,13.16
2023-03-12T09:55:57.557Z,13.15
2023-03-12T09:58:36.208Z,13.17
2023-03-12T10:01:17.330Z,13.19
2023-03-12T10:03:50.004Z,13.18
2023-03-12T10:06:20.452Z,13.16
2023-03-12T10:09:02.344Z,13.19
2023-03-12T10:11:42.886Z,13.20
2023-03-12T10:14:34.176Z,13.20
2023-03-12T10:17:42.264Z,13.20
2023-03-12T10:20:41.897Z,13.22
2023-03-12T10:23:21.593Z,13.20
2023-03-12T10:26:00.240Z,13.24
2023-03-12T10:28:37.690Z,13.22
2023-03-12T10:31:16.065Z,13.23
2023-03-12T10:33:52.307Z,13.27
2023-03-12T10:36:21.155Z,13.23
2023-03-12T10:38:49.435Z,13.22
2023-03-12T10:41:19.031Z,13.26
2023-03-12T10:43:45.834Z,13.26
2023-03-12T10:46:15.435Z,13.25
2023-03-12T10:48:43.276Z,13.25
2023-03-12T10:51:12.485Z,13.24
2023-03-12T10:53:40.176Z,13.26
2023-03-12T10:56:06.739Z,13.28
2023-03-12T10:58:40.150Z,13.31
2023-03-12T11:01:19.259Z,13.31
2023-03-12T11:03:46.646Z,13.32
2023-03-12T11:06:30.249Z,13.33
2023-03-12T11:09:16.334Z,13.36
2023-03-12T11:11:45.302Z,13.34
2023-03-12T11:14:19.890Z,13.37
2023-03-12T11:16:46.840Z,13.35
2023-03-12T11:19:25.726Z,13.37
2023-03-12T11:22:03.453Z,13.34
2023-03-12T11:24:30.694Z,13.35
2023-03-12T11:27:05.088Z,13.37
2023-03-12T11:29:40.117Z,13.37
2023-03-12T11:32:15.095Z,13.37
2023-03-12T11:34:42.179Z,13.38
2023-03-12T11:37:27.651Z,13.38
2023-03-12T11:40:15.367Z,13.38
2023-03-12T11:42:57.055Z,13.39
2023-03-12T11:45:26.348Z,13.40
2023-03-12T11:48:05.076Z,13.39
2023-03-12T11:51:06.885Z,13.41
2023-03-12T11:53:51.684Z,13.42
2023-03-12T11:56:29.387Z,13.43
2023-03-12T11:58:59.907Z,13.40
2023-03-12T12:01:26.416Z,13.47
2023-03-12T12:04:26.309Z,13.45
2023-03-12T12:07:04.895Z,13.47
2023-03-12T12:09:57.779Z,13.49
2023-03-12T12:12:39.522Z,13.50
2023-03-12T12:15:23.210Z,13.50
2023-03-12T12:17:57.265Z,13.50
2023-03-12T12:20:42.292Z,13.51
2023-03-12T12:23:26.955Z,13.52
2023-03-12T12:26:05.628Z,13.57
2023-03-12T12:28:38.368Z,13.57
2023-03-12T12:31:31.483Z,13.58
2023-03-12T12:34:02.007Z,13.60
2023-03-12T12:36:33.744Z,13.64
2023-03-12T12:39:06.903Z,13.62
2023-03-12T12:41:38.614Z,13.65
2023-03-12T12:44:13.404Z,13.67
2023-03-12T12:46:45.302Z,13.69
2023-03-12T12:49:50.901Z,13.67
2023-03-12T12:52:22.087Z,13.70
2023-03-12T12:55:03.731Z,13.71
2023-03-12T12:57:56.985Z,13.72
2023-03-12T13:00:41.900Z,13.71
2023-03-12T13:03:17.502Z,13.72
2023-03-12T13:05:56.988Z,13.70
2023-03-12T13:08:44.911Z,13.75
2023-03-12T13:11:20.261Z,13.75
2023-03-12T13:13:50.262Z,13.74
2023-03-12T13:16:36.587Z,13.76
2023-03-12T13:19:06.537Z,13.75
2023-03-12T13:21:39.175Z,13.77
2023-03-12T13:24:18.539Z,13.76
2023-03-12T13:27:18.910Z,13.78
2023-03-12T13:29:46.081Z,13.78
2023-03-12T13:32:34.790Z,13.79
2023-03-12T13:35:13.401Z,13.80
2023-03-12T13:37:52.281Z,13.80
2023-03-12T13:40:52.021Z,13.80
2023-03-12T13:43:51.993Z,13.81
2023-03-12T13:46:18.481Z,13.83
2023-03-12T13:48:47.773Z,13.84
2023-03-12T13:51:20.694Z,13.84
2023-03-12T13:53:52.304Z,13.82
2023-03-12T13:56:21.297Z,13.88
2023-03-12T13:59:03.696Z,13.88
2023-03-12T14:01:36.841Z,13.91
2023-03-12T14:04:12.398Z,13.91
2023-03-12T14:07:31.179Z,13.95
2023-03-12T14:10:18.266Z,13.99
2023-03-12T14:13:19.893Z,14.02
2023-03-12T14:16:00.032Z,14.01
2023-03-12T14:18:30.368Z,14.05
2023-03-12T14:21:00.616Z,14.06
2023-03-12T14:23:34.141Z,14.07
2023-03-12T14:26:04.146Z,14.10
2023-03-12T14:28:36.051Z,14.10
2023-03-12T14:31:16.997Z,14.09
2023-03-12T14:34:11.685Z,14.10
2023-03-12T14:36:46.928Z,14.06
2023-03-12T14:39:37.901Z,14.10
2023-03-12T14:42:07.898Z,14.08
2023-03-12T14:44:37.418Z,14.11
2023-03-12T14:47:11.571Z,14.12
2023-03-12T14:49:45.874Z,14.12
2023-03-12T14:52:23.120Z,14.10
2023-03-12T14:55:01.086Z,14.13
2023-03-12T14:57:28.001Z,14.12
2023-03-12T14:59:57.052Z,14.15
2023-03-12T15:02:25.055Z,14.11
2023-03-12T15:04:56.218Z,14.12
2023-03-12T15:07:38.566Z,14.14
2023-03-12T15:10:20.104Z,14.16
2023-03-12T15:12:47.082Z,14.16
2023-03-12T15:15:39.195Z,14.18
2023-03-12T15:18:16.170Z,14.19
2023-03-12T15:20:43.350Z,14.20
2023-03-12T15:23:13.499Z,14.20
2023-03-12T15:25:40.853Z,14.14
2023-03-12T15:28:10.540Z,14.21
2023-03-12T15:30:39.030Z,14.19
2023-03-12T15:33:17.844Z,14.22
2023-03-12T15:35:59.879Z,14.22
2023-03-12T15:38:26.891Z,14.22
2023-03-12T15:40:58.533Z,14.22
2023-03-12T15:43:26.436Z,14.21
2023-03-12T15:46:01.290Z,14.22
2023-03-12T15:48:40.447Z,14.23
2023-03-12T15:51:16.381Z,14.23
2023-03-12T15:53:42.813Z,14.27
2023-03-12T15:56:09.563Z,14.27
2023-03-12T15:58:41.627Z,14.28
2023-03-12T16:01:13.608Z,14.26
2023-03-12T16:03:42.451Z,14.25
2023-03-12T16:06:15.137Z,14.26
2023-03-12T16:08:46.534Z,14.28
2023-03-12T16:11:17.592Z,14.29
2023-03-12T16:13:45.817Z,14.30
2023-03-12T16:16:13.863Z,14.27
2023-03-12T16:18:41.755Z,14.30
2023-03-12T16:21:08.898Z,14.30
2023-03-12T16:23:35.665Z,14.28
2023-03-12T16:26:04.624Z,14.31
2023-03-12T16:28:33.562Z,14.29
2023-03-12T16:31:00.131Z,14.28
2023-03-12T16:33:26.722Z,14.31
2023-03-12T16:35:53.405Z,14.31
2023-03-12T16:38:20.015Z,14.30
2023-03-12T16:40:49.567Z,14.27
2023-03-12T16:43:21.719Z,14.33
2023-03-12T16:45:50.123Z,14.30
2023-03-12T16:48:20.103Z,14.28
2023-03-12T16:50:49.977Z,14.32
2023-03-12T16:53:17.019Z,14.31
2023-03-12T16:55:55.728Z,14.28
2023-03-12T16:58:24.061Z,14.32
2023-03-12T17:00:52.869Z,14.30
2023-03-12T17:03:35.509Z,14.34
2023-03-12T17:06:03.261Z,14.34
2023-03-12T17:08:29.783Z,14.34
2023-03-12T17:10:57.556Z,14.32
2023-03-12T17:13:28.028Z,14.32
2023-03-12T17:15:55.771Z,14.33
2023-03-12T17:18:22.870Z,14.34
2023-03-12T17:20:51.688Z,14.31
2023-03-12T17:23:19.009Z,14.30
2023-03-12T17:25:45.866Z,14.28
2023-03-12T17:28:14.314Z,14.33
2023-03-12T17:30:41.179Z,14.32
2023-03-12T17:33:11.938Z,14.31
2023-03-12T17:35:39.851Z,14.34
2023-03-12T17:38:06.846Z,14.33
2023-03-12T17:40:33.896Z,14.33
2023-03-12T17:43:00.404Z,14.31
2023-03-12T17:45:27.491Z,14.30
2023-03-12T17:47:54.070Z,14.30
2023-03-12T17:50:20.694Z,14.33
2023-03-12T17:52:47.257Z,14.31
2023-03-12T17:55:13.985Z,14.27
2023-03-12T17:57:40.814Z,14.31
2023-03-12T18:00:12.681Z,14.29
2023-03-12T18:02:40.930Z,14.27
2023-03-12T18:05:11.579Z,14.31
2023-03-12T18:07:38.673Z,14.31
2023-03-12T18:10:07.690Z,14.30
2023-03-12T18:12:34.963Z,14.28
2023-03-12T18:15:01.585Z,14.29
2023-03-12T18:17:28.125Z,14.27
2023-03-12T18:19:54.692Z,14.26
2023-03-12T18:22:21.290Z,14.30
2023-03-12T18:24:47.998Z,14.30
2023-03-12T18:27:14.572Z,14.31
2023-03-12T18:29:41.321Z,14.27
2023-03-12T18:32:08.626Z,14.30
2023-03-12T18:34:35.510Z,14.26
2023-03-12T18:37:02.072Z,14.26
2023-03-12T18:39:28.685Z,14.29
2023-03-12T18:41:56.035Z,14.30
2023-03-12T18:44:22.930Z,14.28
2023-03-12T18:46:51.819Z,14.24
2023-03-12T18:49:18.618Z,14.28
2023-03-12T18:51:45.454Z,14.29
2023-03-12T18:54:12.856Z,14.29
2023-03-12T18:56:40.933Z,14.28
2023-03-12T18:59:09.886Z,14.31
2023-03-12T19:01:37.168Z,14.26
2023-03-12T19:04:03.970Z,14.30
2023-03-12T19:06:40.821Z,14.29
2023-03-12T19:09:14.955Z,14.31
2023-03-12T19:11:41.651Z,14.30
2023-03-12T19:14:08.252Z,14.25
2023-03-12T19:16:34.960Z,14.27
2023-03-12T19:19:01.609Z,14.27
2023-03-12T19:21:28.214Z,14.24
2023-03-12T19:23:54.833Z,14.31
2023-03-12T19:26:21.459Z,14.22
2023-03-12T19:28:48.043Z,14.22
2023-03-12T19:31:15.360Z,14.25
2023-03-12T19:33:42.940Z,14.19
2023-03-12T19:36:09.713Z,14.30
2023-03-12T19:38:36.505Z,14.24
2023-03-12T19:41:03.077Z,14.27
2023-03-12T19:43:29.679Z,14.26
2023-03-12T19:45:56.366Z,14.30
2023-03-12T19:48:25.330Z,14.32
2023-03-12T19:50:53.929Z,14.30
2023-03-12T19:53:20.533Z,14.25
2023-03-12T19:55:51.122Z,14.27
2023-03-12T19:58:17.779Z,14.33
2023-03-12T20:00:44.717Z,14.30
2023-03-12T20:03:11.324Z,14.30
2023-03-12T20:05:37.932Z,14.33
2023-03-12T20:08:04.624Z,14.29
2023-03-12T20:10:32.374Z,14.34
2023-03-12T20:12:59.294Z,14.33
2023-03-12T20:15:26.421Z,14.32
2023-03-12T20:17:54.879Z,14.37
2023-03-12T20:20:21.504Z,14.34
2023-03-12T20:22:48.067Z,14.34
2023-03-12T20:25:14.676Z,14.35
2023-03-12T20:27:41.231Z,14.35
2023-03-12T20:30:09.410Z,14.37
2023-03-12T20:32:36.195Z,14.32
2023-03-12T20:35:02.840Z,14.35
2023-03-12T20:37:29.395Z,14.37
2023-03-12T20:39:55.980Z,14.37
2023-03-12T20:42:22.599Z,14.36
2023-03-12T20:44:49.180Z,14.34
2023-03-12T20:47:15.792Z,14.27
2023-03-12T20:49:42.316Z,14.35
2023-03-12T20:52:08.827Z,14.35
2023-03-12T20:54:35.365Z,14.38
2023-03-12T20:57:01.926Z,14.37
2023-03-12T20:59:28.528Z,14.36
2023-03-12T21:01:55.317Z,14.38
2023-03-12T21:04:21.889Z,14.30
2023-03-12T21:06:51.622Z,14.38
2023-03-12T21:09:18.652Z,14.37
2023-03-12T21:11:45.243Z,14.36
2023-03-12T21:14:11.763Z,14.31
2023-03-12T21:16:38.373Z,14.35
2023-03-12T21:19:04.994Z,14.36
2023-03-12T21:21:32.231Z,14.35
2023-03-12T21:23:58.754Z,14.37
2023-03-12T21:26:25.339Z,14.39
2023-03-12T21:28:51.920Z,14.38
2023-03-12T21:31:18.588Z,14.40
2023-03-12T21:33:45.458Z,14.36
2023-03-12T21:36:13.786Z,14.38
2023-03-12T21:38:42.685Z,14.37
2023-03-12T21:41:15.685Z,14.42
2023-03-12T21:43:43.828Z,14.35
2023-03-12T21:46:16.039Z,14.41
2023-03-12T21:48:47.663Z,14.43
2023-03-12T21:51:16.255Z,14.43
2023-03-12T21:53:43.205Z,14.30
2023-03-12T21:56:10.062Z,14.42
2023-03-12T21:58:37.022Z,14.44
2023-03-12T22:01:15.750Z,14.43
2023-03-12T22:03:43.893Z,14.44
2023-03-12T22:06:11.476Z,14.36
2023-03-12T22:08:38.859Z,14.32
2023-03-12T22:11:07.456Z,14.37
2023-03-12T22:13:34.446Z,14.38
2023-03-12T22:16:03.731Z,14.36
2023-03-12T22:18:30.478Z,14.35
2023-03-12T22:21:03.285Z,14.38
2023-03-12T22:23:30.283Z,14.37
2023-03-12T22:26:01.249Z,14.37
2023-03-12T22:28:27.801Z,14.34
2023-03-12T22:31:00.590Z,14.35
2023-03-12T22:33:28.381Z,14.34
2023-03-12T22:35:55.213Z,14.27
2023-03-12T22:38:22.818Z,14.35
2023-03-12T22:40:49.911Z,14.30
2023-03-12T22:43:16.526Z,14.29
2023-03-12T22:45:43.572Z,14.31
2023-03-12T22:48:10.205Z,14.27
2023-03-12T22:50:36.825Z,14.27
2023-03-12T22:53:03.632Z,14.32
2023-03-12T22:55:30.225Z,14.31
2023-03-12T22:57:56.805Z,14.31
2023-03-12T23:00:23.618Z,14.28
2023-03-12T23:02:50.380Z,14.31
2023-03-12T23:05:17.399Z,14.33
2023-03-12T23:07:44.036Z,14.29
2023-03-12T23:10:10.914Z,14.28
2023-03-12T23:12:37.504Z,14.29
2023-03-12T23:15:04.283Z,14.31
2023-03-12T23:17:30.809Z,14.31
2023-03-12T23:19:57.369Z,14.27
2023-03-12T23:22:23.927Z,14.25
2023-03-12T23:24:50.537Z,14.30
2023-03-12T23:27:17.150Z,14.26
2023-03-12T23:29:43.732Z,14.25
2023-03-12T23:32:10.262Z,14.19
2023-03-12T23:34:36.806Z,14.28
2023-03-12T23:37:03.572Z,14.28
2023-03-12T23:39:30.970Z,14.27
2023-03-12T23:41:57.912Z,14.30
2023-03-12T23:44:24.915Z,14.28
2023-03-12T23:46:51.576Z,14.28
2023-03-12T23:49:18.310Z,14.23
2023-03-12T23:51:44.960Z,14.26
2023-03-12T23:54:11.505Z,14.27
2023-03-12T23:56:39.868Z,14.24
2023-03-12T23:59:08.754Z,14.28
